createdAt,value
2022-12-25T00:00:29.734Z,12.00
2022-12-25T00:01:05.335Z,11.93
2022-12-25T00:01:36.829Z,10.73
2022-12-25T00:02:08.224Z,10.77
2022-12-25T00:02:39.641Z,10.85
2022-12-25T00:03:11.122Z,11.40
2022-12-25T00:03:42.766Z,10.77
2022-12-25T00:04:14.368Z,10.68
2022-12-25T00:04:45.939Z,11.60
2022-12-25T00:05:17.439Z,12.00
2022-12-25T00:05:48.870Z,11.70
2022-12-25T00:06:20.295Z,11.63
2022-12-25T00:06:51.695Z,10.88
2022-12-25T00:07:23.125Z,10.60
2022-12-25T00:07:54.604Z,10.82
2022-12-25T00:08:25.983Z,11.15
2022-12-25T00:08:57.390Z,12.13
2022-12-25T00:09:28.901Z,11.10
2022-12-25T00:10:00.315Z,11.10
2022-12-25T00:10:31.665Z,10.50
2022-12-25T00:11:04.716Z,10.60
2022-12-25T00:11:36.091Z,11.30
2022-12-25T00:12:07.427Z,11.27
2022-12-25T00:12:38.951Z,11.30
2022-12-25T00:13:10.328Z,11.27
2022-12-25T00:13:42.276Z,11.43
2022-12-25T00:14:13.625Z,11.70
2022-12-25T00:14:45.217Z,10.65
2022-12-25T00:15:17.804Z,11.55
2022-12-25T00:15:49.200Z,10.60
2022-12-25T00:16:22.110Z,10.48
2022-12-25T00:16:53.567Z,11.17
2022-12-25T00:17:25.043Z,10.88
2022-12-25T00:17:56.435Z,10.80
2022-12-25T00:18:28.167Z,10.88
2022-12-25T00:18:59.580Z,10.77
2022-12-25T00:19:30.985Z,11.02
2022-12-25T00:20:02.475Z,10.10
2022-12-25T00:20:36.182Z,10.45
2022-12-25T00:21:07.630Z,10.70
2022-12-25T00:21:39.061Z,10.77
2022-12-25T00:22:10.434Z,10.68
2022-12-25T00:22:41.788Z,10.77
2022-12-25T00:23:13.155Z,10.43
2022-12-25T00:23:44.524Z,10.50
2022-12-25T00:24:16.079Z,10.70
2022-12-25T00:24:47.856Z,9.35
2022-12-25T00:25:19.222Z,10.60
2022-12-25T00:25:50.740Z,10.40
2022-12-25T00:26:22.419Z,9.60
2022-12-25T00:26:53.867Z,10.63
2022-12-25T00:27:25.246Z,10.70
2022-12-25T00:27:56.609Z,10.90
2022-12-25T00:28:27.955Z,10.82
2022-12-25T00:28:59.310Z,10.48
2022-12-25T00:29:31.919Z,10.38
2022-12-25T00:30:06.350Z,11.15
2022-12-25T00:30:37.824Z,10.77
2022-12-25T00:31:10.585Z,9.70
2022-12-25T00:31:42.009Z,11.40
2022-12-25T00:32:13.387Z,10.83
2022-12-25T00:32:44.844Z,9.88
2022-12-25T00:33:16.475Z,10.35
2022-12-25T00:33:48.680Z,10.48
2022-12-25T00:34:20.250Z,10.13
2022-12-25T00:34:51.620Z,10.95
2022-12-25T00:35:22.969Z,10.32
2022-12-25T00:36:01.094Z,10.68
2022-12-25T00:36:37.788Z,10.75
2022-12-25T00:37:12.781Z,9.48
2022-12-25T00:37:44.154Z,11.50
2022-12-25T00:38:15.503Z,10.77
2022-12-25T00:38:46.928Z,10.55
2022-12-25T00:39:18.423Z,9.85
2022-12-25T00:39:49.844Z,10.18
2022-12-25T00:40:21.192Z,11.32
2022-12-25T00:40:52.578Z,11.15
2022-12-25T00:41:24.429Z,11.70
2022-12-25T00:41:55.785Z,11.15
2022-12-25T00:42:27.160Z,11.48
2022-12-25T00:42:58.512Z,10.75
2022-12-25T00:43:29.911Z,11.13
2022-12-25T00:44:01.267Z,11.30
2022-12-25T00:44:32.683Z,10.90
2022-12-25T00:45:04.268Z,10.37
2022-12-25T00:45:35.699Z,10.57
2022-12-25T00:46:07.170Z,10.15
2022-12-25T00:46:38.722Z,10.18
2022-12-25T00:47:10.199Z,10.52
2022-12-25T00:47:41.636Z,10.98
2022-12-25T00:48:13.109Z,10.00
2022-12-25T00:48:44.459Z,10.93
2022-12-25T00:49:15.820Z,10.75
2022-12-25T00:49:47.175Z,9.37
2022-12-25T00:50:18.788Z,10.43
2022-12-25T00:50:53.382Z,10.95
2022-12-25T00:51:24.864Z,9.88
2022-12-25T00:51:56.984Z,10.02
2022-12-25T00:52:28.394Z,9.43
2022-12-25T00:52:59.775Z,9.75
2022-12-25T00:53:31.382Z,9.65
2022-12-25T00:54:03.096Z,9.48
2022-12-25T00:54:34.536Z,10.10
2022-12-25T00:55:06.154Z,10.25
2022-12-25T00:55:37.557Z,9.50
2022-12-25T00:56:10.209Z,9.52
2022-12-25T00:56:41.614Z,10.70
2022-12-25T00:57:13.037Z,9.50
2022-12-25T00:57:44.469Z,8.77
2022-12-25T00:58:16.013Z,9.38
2022-12-25T00:58:47.390Z,10.18
2022-12-25T00:59:18.829Z,9.32
2022-12-25T00:59:50.316Z,9.05
2022-12-25T01:00:23.426Z,8.95
2022-12-25T01:00:54.898Z,9.00
2022-12-25T01:01:26.487Z,10.37
2022-12-25T01:01:58.159Z,9.68
2022-12-25T01:02:29.807Z,9.15
2022-12-25T01:03:01.482Z,10.23
2022-12-25T01:03:33.668Z,9.30
2022-12-25T01:04:05.619Z,9.38
2022-12-25T01:04:37.025Z,9.77
2022-12-25T01:05:08.686Z,9.25
2022-12-25T01:05:40.218Z,10.25
2022-12-25T01:06:11.596Z,9.45
2022-12-25T01:06:42.950Z,8.35
2022-12-25T01:07:14.373Z,9.23
2022-12-25T01:07:45.794Z,9.32
2022-12-25T01:08:17.191Z,9.73
2022-12-25T01:08:48.604Z,9.87
2022-12-25T01:09:19.940Z,9.68
2022-12-25T01:09:51.350Z,9.45
2022-12-25T01:10:22.746Z,9.38
2022-12-25T01:10:58.573Z,9.27
2022-12-25T01:11:30.095Z,9.65
2022-12-25T01:12:01.489Z,9.32
2022-12-25T01:12:34.269Z,9.60
2022-12-25T01:13:05.728Z,9.40
2022-12-25T01:13:37.304Z,8.75
2022-12-25T01:14:08.709Z,9.30
2022-12-25T01:14:40.043Z,8.52
2022-12-25T01:15:12.058Z,8.17
2022-12-25T01:15:43.431Z,9.15
2022-12-25T01:16:14.795Z,9.95
2022-12-25T01:16:46.558Z,8.85
2022-12-25T01:17:18.031Z,8.75
2022-12-25T01:17:49.393Z,9.18
2022-12-25T01:18:21.446Z,9.30
2022-12-25T01:18:52.831Z,8.73
2022-12-25T01:19:24.177Z,8.85
2022-12-25T01:19:55.533Z,8.77
2022-12-25T01:20:26.916Z,9.18
2022-12-25T01:20:58.273Z,9.50
2022-12-25T01:21:30.034Z,8.85
2022-12-25T01:22:01.404Z,8.43
2022-12-25T01:22:32.870Z,8.98
2022-12-25T01:23:04.255Z,8.27
2022-12-25T01:23:37.404Z,9.05
2022-12-25T01:24:08.756Z,9.43
2022-12-25T01:24:40.118Z,9.00
2022-12-25T01:25:12.523Z,9.23
2022-12-25T01:25:43.875Z,9.10
2022-12-25T01:26:16.134Z,8.18
2022-12-25T01:26:47.537Z,8.10
2022-12-25T01:27:18.912Z,7.28
2022-12-25T01:27:50.268Z,7.60
2022-12-25T01:28:21.667Z,7.50
2022-12-25T01:28:53.356Z,7.47
2022-12-25T01:29:24.732Z,7.40
2022-12-25T01:29:56.084Z,7.20
2022-12-25T01:30:27.481Z,7.90
2022-12-25T01:30:58.914Z,8.00
2022-12-25T01:31:30.340Z,8.00
2022-12-25T01:32:01.782Z,7.70
2022-12-25T01:32:33.336Z,8.13
2022-12-25T01:33:04.703Z,7.65
2022-12-25T01:33:36.123Z,8.20
2022-12-25T01:34:07.509Z,7.32
2022-12-25T01:34:38.885Z,7.18
2022-12-25T01:35:10.349Z,7.32
2022-12-25T01:35:41.794Z,7.28
2022-12-25T01:36:17.050Z,7.85
2022-12-25T01:36:48.380Z,7.32
2022-12-25T01:37:19.706Z,7.15
2022-12-25T01:37:51.358Z,7.28
2022-12-25T01:38:22.687Z,7.68
2022-12-25T01:38:54.386Z,7.22
2022-12-25T01:39:25.785Z,7.35
2022-12-25T01:39:57.183Z,7.00
2022-12-25T01:40:28.524Z,8.00
2022-12-25T01:40:59.945Z,7.55
2022-12-25T01:41:31.363Z,8.18
2022-12-25T01:42:02.867Z,7.00
2022-12-25T01:42:34.554Z,7.40
2022-12-25T01:43:17.032Z,7.43
2022-12-25T01:43:56.315Z,7.03
2022-12-25T01:44:36.858Z,7.25
2022-12-25T01:45:26.837Z,7.22
2022-12-25T01:45:58.323Z,6.85
2022-12-25T01:46:30.245Z,7.43
2022-12-25T01:47:02.130Z,7.03
2022-12-25T01:47:33.510Z,6.38
2022-12-25T01:48:06.594Z,6.47
2022-12-25T01:48:39.075Z,6.63
2022-12-25T01:49:16.228Z,7.53
2022-12-25T01:49:49.694Z,7.28
2022-12-25T01:50:21.156Z,6.77
2022-12-25T01:51:12.759Z,6.65
2022-12-25T01:51:46.968Z,6.55
2022-12-25T01:52:23.847Z,6.55
2022-12-25T01:52:56.358Z,6.00
2022-12-25T01:53:27.863Z,5.85
2022-12-25T01:54:02.085Z,7.38
2022-12-25T01:54:34.941Z,6.38
2022-12-25T01:55:07.057Z,7.25
2022-12-25T01:55:40.049Z,6.50
2022-12-25T01:56:11.757Z,7.28
2022-12-25T01:56:44.176Z,6.85
2022-12-25T01:57:17.726Z,6.45
2022-12-25T01:57:49.114Z,7.07
2022-12-25T01:58:20.978Z,6.63
2022-12-25T01:58:52.590Z,7.68
2022-12-25T01:59:25.116Z,7.38
2022-12-25T01:59:57.105Z,6.05
2022-12-25T02:00:28.512Z,5.55
2022-12-25T02:00:59.907Z,5.60
2022-12-25T02:01:31.947Z,6.55
2022-12-25T02:02:03.767Z,6.47
2022-12-25T02:02:36.038Z,5.60
2022-12-25T02:03:07.525Z,6.30
2022-12-25T02:03:38.991Z,7.40
2022-12-25T02:04:15.710Z,6.53
2022-12-25T02:05:07.291Z,6.38
2022-12-25T02:05:38.679Z,7.07
2022-12-25T02:06:10.039Z,6.40
2022-12-25T02:06:41.718Z,5.97
2022-12-25T02:07:14.696Z,7.20
2022-12-25T02:07:46.483Z,6.55
2022-12-25T02:08:19.026Z,7.07
2022-12-25T02:08:50.483Z,6.43
2022-12-25T02:09:21.871Z,6.80
2022-12-25T02:09:53.612Z,6.10
2022-12-25T02:10:25.096Z,7.45
2022-12-25T02:10:56.546Z,6.90
2022-12-25T02:11:27.907Z,6.45
2022-12-25T02:12:00.244Z,6.88
2022-12-25T02:12:34.098Z,6.00
2022-12-25T02:13:06.027Z,5.82
2022-12-25T02:13:37.375Z,5.97
2022-12-25T02:14:08.800Z,6.93
2022-12-25T02:14:40.206Z,6.18
2022-12-25T02:15:19.304Z,7.10
2022-12-25T02:15:50.700Z,6.97
2022-12-25T02:16:22.723Z,6.35
2022-12-25T02:16:59.823Z,6.07
2022-12-25T02:17:31.284Z,6.50
2022-12-25T02:18:16.404Z,6.28
2022-12-25T02:18:53.995Z,6.60
2022-12-25T02:19:43.046Z,6.93
2022-12-25T02:20:37.721Z,6.20
2022-12-25T02:21:14.836Z,6.35
2022-12-25T02:21:46.144Z,6.43
2022-12-25T02:22:36.334Z,5.95
2022-12-25T02:23:13.551Z,6.28
2022-12-25T02:23:45.007Z,5.97
2022-12-25T02:24:22.454Z,5.95
2022-12-25T02:24:56.551Z,6.90
2022-12-25T02:25:46.840Z,5.78
2022-12-25T02:26:33.410Z,5.45
2022-12-25T02:27:07.893Z,6.45
2022-12-25T02:27:57.877Z,5.97
2022-12-25T02:28:37.031Z,5.82
2022-12-25T02:29:27.323Z,5.82
2022-12-25T02:30:01.778Z,6.15
2022-12-25T02:30:35.614Z,4.68
2022-12-25T02:31:27.271Z,5.85
2022-12-25T02:32:04.910Z,5.95
2022-12-25T02:32:42.157Z,5.18
2022-12-25T02:33:15.589Z,5.45
2022-12-25T02:33:46.943Z,6.05
2022-12-25T02:34:26.079Z,5.47
2022-12-25T02:35:23.605Z,5.07
2022-12-25T02:35:55.623Z,5.93
2022-12-25T02:36:28.265Z,5.28
2022-12-25T02:37:07.881Z,5.13
2022-12-25T02:37:53.003Z,5.63
2022-12-25T02:38:27.065Z,5.30
2022-12-25T02:39:00.489Z,5.30
2022-12-25T02:39:41.132Z,5.90
2022-12-25T02:40:12.489Z,5.63
2022-12-25T02:40:47.732Z,5.53
2022-12-25T02:41:19.132Z,5.40
2022-12-25T02:41:52.833Z,5.20
2022-12-25T02:42:27.362Z,5.43
2022-12-25T02:43:13.325Z,4.60
2022-12-25T02:43:46.114Z,7.15
2022-12-25T02:44:19.554Z,5.80
2022-12-25T02:44:51.282Z,4.65
2022-12-25T02:45:31.398Z,4.88
2022-12-25T02:46:10.121Z,5.47
2022-12-25T02:46:41.904Z,5.68
2022-12-25T02:47:13.601Z,5.47
2022-12-25T02:47:45.070Z,5.47
2022-12-25T02:48:17.729Z,5.55
2022-12-25T02:48:53.394Z,5.70
2022-12-25T02:49:26.754Z,5.32
2022-12-25T02:49:58.710Z,5.57
2022-12-25T02:50:30.206Z,5.00
2022-12-25T02:51:03.623Z,5.53
2022-12-25T02:51:37.190Z,4.90
2022-12-25T02:52:13.794Z,5.07
2022-12-25T02:52:46.024Z,5.25
2022-12-25T02:53:17.408Z,5.05
2022-12-25T02:53:50.430Z,5.78
2022-12-25T02:54:25.116Z,5.03
2022-12-25T02:55:01.580Z,5.67
2022-12-25T02:55:35.402Z,4.97
2022-12-25T02:56:06.933Z,5.18
2022-12-25T02:56:39.561Z,5.13
2022-12-25T02:57:12.520Z,5.72
2022-12-25T02:57:46.251Z,5.40
2022-12-25T02:58:19.627Z,4.88
2022-12-25T02:58:51.027Z,5.75
2022-12-25T02:59:23.064Z,5.47
2022-12-25T02:59:55.963Z,5.38
2022-12-25T03:00:27.408Z,5.25
2022-12-25T03:01:07.025Z,6.05
2022-12-25T03:01:38.510Z,6.20
2022-12-25T03:02:10.522Z,5.38
2022-12-25T03:02:42.663Z,5.18
2022-12-25T03:03:14.749Z,4.70
2022-12-25T03:03:47.925Z,4.70
2022-12-25T03:04:21.610Z,4.95
2022-12-25T03:04:54.131Z,6.20
2022-12-25T03:05:26.864Z,5.00
2022-12-25T03:06:01.256Z,5.38
2022-12-25T03:06:33.444Z,6.27
2022-12-25T03:07:31.256Z,5.70
2022-12-25T03:08:04.654Z,5.45
2022-12-25T03:08:38.140Z,4.53
2022-12-25T03:09:11.947Z,5.28
2022-12-25T03:09:48.978Z,5.45
2022-12-25T03:10:21.333Z,5.53
2022-12-25T03:10:57.787Z,5.43
2022-12-25T03:11:29.156Z,5.93
2022-12-25T03:12:20.938Z,5.05
2022-12-25T03:12:52.465Z,5.18
2022-12-25T03:13:25.639Z,5.38
2022-12-25T03:14:00.321Z,6.07
2022-12-25T03:14:31.849Z,5.47
2022-12-25T03:15:04.247Z,5.25
2022-12-25T03:15:35.609Z,6.30
2022-12-25T03:16:07.554Z,4.80
2022-12-25T03:16:39.044Z,5.22
2022-12-25T03:17:10.570Z,6.20
2022-12-25T03:17:42.163Z,5.60
2022-12-25T03:18:15.331Z,6.32
2022-12-25T03:18:46.767Z,5.95
2022-12-25T03:19:18.718Z,5.53
2022-12-25T03:19:50.146Z,5.45
2022-12-25T03:20:21.484Z,5.90
2022-12-25T03:20:53.747Z,5.13
2022-12-25T03:21:25.271Z,5.75
2022-12-25T03:21:57.076Z,5.63
2022-12-25T03:22:29.916Z,6.00
2022-12-25T03:23:01.291Z,5.68
2022-12-25T03:23:34.058Z,5.43
2022-12-25T03:24:05.583Z,5.95
2022-12-25T03:24:36.935Z,5.82
2022-12-25T03:25:08.751Z,5.78
2022-12-25T03:25:40.743Z,5.35
2022-12-25T03:26:12.223Z,5.97
2022-12-25T03:26:43.995Z,5.40
2022-12-25T03:27:15.663Z,6.38
2022-12-25T03:27:49.066Z,5.93
2022-12-25T03:28:20.393Z,6.63
2022-12-25T03:28:51.780Z,6.00
2022-12-25T03:29:31.761Z,5.95
2022-12-25T03:30:03.672Z,5.82
2022-12-25T03:30:37.844Z,5.25
2022-12-25T03:31:15.001Z,5.95
2022-12-25T03:31:50.556Z,5.78
2022-12-25T03:32:21.872Z,6.20
2022-12-25T03:32:56.242Z,5.73
2022-12-25T03:33:46.719Z,5.95
2022-12-25T03:34:23.971Z,5.70
2022-12-25T03:34:58.119Z,6.80
2022-12-25T03:35:37.574Z,5.72
2022-12-25T03:36:26.563Z,7.25
2022-12-25T03:37:00.694Z,5.40
2022-12-25T03:37:44.721Z,5.85
2022-12-25T03:38:22.645Z,5.88
2022-12-25T03:39:23.163Z,6.65
2022-12-25T03:39:54.522Z,6.43
2022-12-25T03:40:25.884Z,5.75
2022-12-25T03:41:03.816Z,5.95
2022-12-25T03:41:35.236Z,5.95
2022-12-25T03:42:07.208Z,6.20
2022-12-25T03:42:43.507Z,5.75
2022-12-25T03:43:47.063Z,5.63
2022-12-25T03:44:27.389Z,6.05
2022-12-25T03:45:08.293Z,6.55
2022-12-25T03:45:42.601Z,5.57
2022-12-25T03:46:16.176Z,5.78
2022-12-25T03:46:51.151Z,6.32
2022-12-25T03:47:25.660Z,5.85
2022-12-25T03:47:57.196Z,5.75
2022-12-25T03:48:30.596Z,6.25
2022-12-25T03:49:14.766Z,7.07
2022-12-25T03:49:57.447Z,6.50
2022-12-25T03:50:28.822Z,6.10
2022-12-25T03:51:03.459Z,6.40
2022-12-25T03:51:36.550Z,6.00
2022-12-25T03:52:09.205Z,6.07
2022-12-25T03:52:41.091Z,6.40
2022-12-25T03:53:21.811Z,5.90
2022-12-25T03:53:57.148Z,5.95
2022-12-25T03:54:30.638Z,5.60
2022-12-25T03:55:03.574Z,6.38
2022-12-25T03:55:35.879Z,6.45
2022-12-25T03:56:07.543Z,6.18
2022-12-25T03:56:39.293Z,6.27
2022-12-25T03:57:11.770Z,5.93
2022-12-25T03:57:43.194Z,6.15
2022-12-25T03:58:18.565Z,5.63
2022-12-25T03:58:51.522Z,5.20
2022-12-25T03:59:24.351Z,5.95
2022-12-25T03:59:56.299Z,6.03
2022-12-25T04:00:27.705Z,5.30
2022-12-25T04:00:59.071Z,6.07
2022-12-25T04:01:30.513Z,6.18
2022-12-25T04:02:02.079Z,6.07
2022-12-25T04:02:33.836Z,5.37
2022-12-25T04:03:05.343Z,5.93
2022-12-25T04:03:36.821Z,5.68
2022-12-25T04:04:08.207Z,5.80
2022-12-25T04:04:39.652Z,5.93
2022-12-25T04:05:11.026Z,5.45
2022-12-25T04:05:42.388Z,6.05
2022-12-25T04:06:13.757Z,5.60
2022-12-25T04:06:45.115Z,5.80
2022-12-25T04:07:16.497Z,5.35
2022-12-25T04:07:47.835Z,6.13
2022-12-25T04:08:19.161Z,6.07
2022-12-25T04:08:50.537Z,6.18
2022-12-25T04:09:21.907Z,5.28
2022-12-25T04:09:53.417Z,5.07
2022-12-25T04:10:25.042Z,5.30
2022-12-25T04:10:56.409Z,5.75
2022-12-25T04:11:27.810Z,5.18
2022-12-25T04:12:02.795Z,6.07
2022-12-25T04:12:34.492Z,6.18
2022-12-25T04:13:05.877Z,5.25
2022-12-25T04:13:37.256Z,5.28
2022-12-25T04:14:08.627Z,6.18
2022-12-25T04:14:39.971Z,6.55
2022-12-25T04:15:11.343Z,5.40
2022-12-25T04:15:42.697Z,5.13
2022-12-25T04:16:14.107Z,5.93
2022-12-25T04:16:45.607Z,6.35
2022-12-25T04:17:16.973Z,6.00
2022-12-25T04:17:51.770Z,5.57
2022-12-25T04:18:23.249Z,5.45
2022-12-25T04:18:54.610Z,5.60
2022-12-25T04:19:25.922Z,5.32
2022-12-25T04:19:57.299Z,5.30
2022-12-25T04:20:28.675Z,5.88
2022-12-25T04:21:00.032Z,5.57
2022-12-25T04:21:31.401Z,6.57
2022-12-25T04:22:02.785Z,6.22
2022-12-25T04:22:34.152Z,5.55
2022-12-25T04:23:05.505Z,5.80
2022-12-25T04:23:36.860Z,5.32
2022-12-25T04:24:09.364Z,5.57
2022-12-25T04:24:40.942Z,5.90
2022-12-25T04:25:12.330Z,5.78
2022-12-25T04:25:43.678Z,4.90
2022-12-25T04:26:15.073Z,5.53
2022-12-25T04:26:46.454Z,5.85
2022-12-25T04:27:17.922Z,6.28
2022-12-25T04:27:49.281Z,5.97
2022-12-25T04:28:20.623Z,5.10
2022-12-25T04:28:51.989Z,5.68
2022-12-25T04:29:23.368Z,6.05
2022-12-25T04:29:54.728Z,6.25
2022-12-25T04:30:26.052Z,6.03
2022-12-25T04:31:00.270Z,5.90
2022-12-25T04:31:31.650Z,5.33
2022-12-25T04:32:03.066Z,5.50
2022-12-25T04:32:34.434Z,6.15
2022-12-25T04:33:05.797Z,5.75
2022-12-25T04:33:37.143Z,6.50
2022-12-25T04:34:08.513Z,6.55
2022-12-25T04:34:39.927Z,6.63
2022-12-25T04:35:11.362Z,6.30
2022-12-25T04:35:46.278Z,5.90
2022-12-25T04:36:17.643Z,5.57
2022-12-25T04:36:49.000Z,5.40
2022-12-25T04:37:20.351Z,6.10
2022-12-25T04:37:51.745Z,6.05
2022-12-25T04:38:23.134Z,5.57
2022-12-25T04:38:54.507Z,5.78
2022-12-25T04:39:25.848Z,5.60
2022-12-25T04:39:57.219Z,5.75
2022-12-25T04:40:28.611Z,5.13
2022-12-25T04:41:00.661Z,5.57
2022-12-25T04:41:32.049Z,6.38
2022-12-25T04:42:03.433Z,5.55
2022-12-25T04:42:34.878Z,6.03
2022-12-25T04:43:06.257Z,5.72
2022-12-25T04:43:37.637Z,5.72
2022-12-25T04:44:09.334Z,5.43
2022-12-25T04:44:40.692Z,5.22
2022-12-25T04:45:12.124Z,6.35
2022-12-25T04:45:51.545Z,6.07
2022-12-25T04:46:22.936Z,5.65
2022-12-25T04:46:54.365Z,5.93
2022-12-25T04:47:25.787Z,6.13
2022-12-25T04:47:59.424Z,4.82
2022-12-25T04:48:31.923Z,5.57
2022-12-25T04:49:03.293Z,4.65
2022-12-25T04:49:34.683Z,5.50
2022-12-25T04:50:06.471Z,5.93
2022-12-25T04:50:37.903Z,5.53
2022-12-25T04:51:10.146Z,5.75
2022-12-25T04:51:41.621Z,5.45
2022-12-25T04:52:13.063Z,5.82
2022-12-25T04:52:44.519Z,5.85
2022-12-25T04:53:17.041Z,5.82
2022-12-25T04:53:49.000Z,5.32
2022-12-25T04:54:20.525Z,6.43
2022-12-25T04:54:54.303Z,5.47
2022-12-25T04:55:25.723Z,5.85
2022-12-25T04:56:03.011Z,6.07
2022-12-25T04:56:38.562Z,5.38
2022-12-25T04:57:13.198Z,5.97
2022-12-25T04:57:45.012Z,5.20
2022-12-25T04:58:16.362Z,5.82
2022-12-25T04:58:47.807Z,5.38
2022-12-25T04:59:19.179Z,6.20
2022-12-25T04:59:50.519Z,6.13
2022-12-25T05:00:21.960Z,4.93
2022-12-25T05:00:53.375Z,5.90
2022-12-25T05:01:24.967Z,5.55
2022-12-25T05:01:56.507Z,5.30
2022-12-25T05:02:28.052Z,6.00
2022-12-25T05:02:59.787Z,5.88
2022-12-25T05:03:31.741Z,5.72
2022-12-25T05:04:03.065Z,5.07
2022-12-25T05:04:34.485Z,6.03
2022-12-25T05:05:05.960Z,6.03
2022-12-25T05:05:39.052Z,5.50
2022-12-25T05:06:10.437Z,5.45
2022-12-25T05:06:41.770Z,5.90
2022-12-25T05:07:13.142Z,5.93
2022-12-25T05:07:44.536Z,6.03
2022-12-25T05:08:15.939Z,6.05
2022-12-25T05:08:47.309Z,6.40
2022-12-25T05:09:18.678Z,5.60
2022-12-25T05:09:50.082Z,5.55
2022-12-25T05:10:21.426Z,6.00
2022-12-25T05:10:52.812Z,6.05
2022-12-25T05:11:24.179Z,6.15
2022-12-25T05:11:55.528Z,5.78
2022-12-25T05:12:26.879Z,5.95
2022-12-25T05:12:58.201Z,4.85
2022-12-25T05:13:29.540Z,6.13
2022-12-25T05:14:00.896Z,5.45
2022-12-25T05:14:32.358Z,5.50
2022-12-25T05:15:03.935Z,5.55
2022-12-25T05:15:35.287Z,6.15
2022-12-25T05:16:11.747Z,5.32
2022-12-25T05:16:43.187Z,5.93
2022-12-25T05:17:14.622Z,5.72
2022-12-25T05:17:45.993Z,6.13
2022-12-25T05:18:17.431Z,5.47
2022-12-25T05:18:50.153Z,5.17
2022-12-25T05:19:21.526Z,6.55
2022-12-25T05:19:52.926Z,6.13
2022-12-25T05:20:24.332Z,5.35
2022-12-25T05:20:55.690Z,5.33
2022-12-25T05:21:27.032Z,5.53
2022-12-25T05:21:58.410Z,5.30
2022-12-25T05:22:29.798Z,5.30
2022-12-25T05:23:01.193Z,5.53
2022-12-25T05:23:32.595Z,5.03
2022-12-25T05:24:04.067Z,5.55
2022-12-25T05:24:35.508Z,5.47
2022-12-25T05:25:07.076Z,6.70
2022-12-25T05:25:39.604Z,4.75
2022-12-25T05:26:10.976Z,5.32
2022-12-25T05:26:42.304Z,5.25
2022-12-25T05:27:14.494Z,5.25
2022-12-25T05:27:50.280Z,5.40
2022-12-25T05:28:25.196Z,5.28
2022-12-25T05:28:56.604Z,5.35
2022-12-25T05:29:28.262Z,5.15
2022-12-25T05:29:59.639Z,5.65
2022-12-25T05:30:31.039Z,5.70
2022-12-25T05:31:02.823Z,5.72
2022-12-25T05:31:34.293Z,5.28
2022-12-25T05:32:05.749Z,5.95
2022-12-25T05:32:37.142Z,5.85
2022-12-25T05:33:08.542Z,6.07
2022-12-25T05:33:41.167Z,6.47
2022-12-25T05:34:12.524Z,5.50
2022-12-25T05:34:43.897Z,5.30
2022-12-25T05:35:15.307Z,5.32
2022-12-25T05:35:46.683Z,5.85
2022-12-25T05:36:18.055Z,5.32
2022-12-25T05:36:49.387Z,5.78
2022-12-25T05:37:20.732Z,6.05
2022-12-25T05:37:52.092Z,5.30
2022-12-25T05:38:23.414Z,5.67
2022-12-25T05:38:54.987Z,5.55
2022-12-25T05:39:26.354Z,4.72
2022-12-25T05:39:57.686Z,5.53
2022-12-25T05:40:29.037Z,5.18
2022-12-25T05:41:00.502Z,5.10
2022-12-25T05:41:34.441Z,4.90
2022-12-25T05:42:06.387Z,5.38
2022-12-25T05:42:37.818Z,6.50
2022-12-25T05:43:09.414Z,5.25
2022-12-25T05:43:40.794Z,5.93
2022-12-25T05:44:12.194Z,5.05
2022-12-25T05:44:43.541Z,5.20
2022-12-25T05:45:14.893Z,6.07
2022-12-25T05:45:46.300Z,4.93
2022-12-25T05:46:17.797Z,5.30
2022-12-25T05:46:49.255Z,5.40
2022-12-25T05:47:20.747Z,5.40
2022-12-25T05:47:52.448Z,5.30
2022-12-25T05:48:23.817Z,5.35
2022-12-25T05:48:55.244Z,5.27
2022-12-25T05:49:26.623Z,5.05
2022-12-25T05:49:58.012Z,5.35
2022-12-25T05:50:29.517Z,4.80
2022-12-25T05:51:04.869Z,6.32
2022-12-25T05:51:36.286Z,5.50
2022-12-25T05:52:07.710Z,4.40
2022-12-25T05:52:39.284Z,5.60
2022-12-25T05:53:11.958Z,5.78
2022-12-25T05:53:43.450Z,5.50
2022-12-25T05:54:14.816Z,5.07
2022-12-25T05:54:46.181Z,5.03
2022-12-25T05:55:17.607Z,5.68
2022-12-25T05:55:49.084Z,5.03
2022-12-25T05:56:20.452Z,5.63
2022-12-25T05:56:51.922Z,5.88
2022-12-25T05:57:23.279Z,5.22
2022-12-25T05:57:54.645Z,5.13
2022-12-25T05:58:26.019Z,4.78
2022-12-25T05:58:57.424Z,5.88
2022-12-25T05:59:29.814Z,4.75
2022-12-25T06:00:01.175Z,4.40
2022-12-25T06:00:33.032Z,4.95
2022-12-25T06:01:09.582Z,5.43
2022-12-25T06:01:41.109Z,4.93
2022-12-25T06:02:12.794Z,5.32
2022-12-25T06:02:44.418Z,5.65
2022-12-25T06:03:15.947Z,5.35
2022-12-25T06:03:47.446Z,5.20
2022-12-25T06:04:18.923Z,4.53
2022-12-25T06:04:50.607Z,4.70
2022-12-25T06:05:22.056Z,5.35
2022-12-25T06:05:53.742Z,5.55
2022-12-25T06:06:25.221Z,4.63
2022-12-25T06:06:56.607Z,5.53
2022-12-25T06:07:28.010Z,5.38
2022-12-25T06:07:59.352Z,5.35
2022-12-25T06:08:30.764Z,5.00
2022-12-25T06:09:02.118Z,4.70
2022-12-25T06:09:33.487Z,5.05
2022-12-25T06:10:05.319Z,4.95
2022-12-25T06:10:36.967Z,5.32
2022-12-25T06:11:09.709Z,4.95
2022-12-25T06:11:41.429Z,4.85
2022-12-25T06:12:12.911Z,5.10
2022-12-25T06:12:44.267Z,5.40
2022-12-25T06:13:15.656Z,5.93
2022-12-25T06:13:49.456Z,5.53
2022-12-25T06:14:20.989Z,5.30
2022-12-25T06:14:52.387Z,5.85
2022-12-25T06:15:23.798Z,5.47
2022-12-25T06:15:55.211Z,5.50
2022-12-25T06:16:26.585Z,6.00
2022-12-25T06:16:58.012Z,6.28
2022-12-25T06:17:29.419Z,6.30
2022-12-25T06:18:01.130Z,5.13
2022-12-25T06:18:34.903Z,6.30
2022-12-25T06:19:06.653Z,4.78
2022-12-25T06:19:38.109Z,5.07
2022-12-25T06:20:09.740Z,5.25
2022-12-25T06:20:41.264Z,5.13
2022-12-25T06:21:13.640Z,5.25
2022-12-25T06:21:45.298Z,5.45
2022-12-25T06:22:16.669Z,5.18
2022-12-25T06:22:48.371Z,5.28
2022-12-25T06:23:19.965Z,5.00
2022-12-25T06:23:51.397Z,5.20
2022-12-25T06:24:23.504Z,4.80
2022-12-25T06:24:54.975Z,4.93
2022-12-25T06:25:26.318Z,5.90
2022-12-25T06:25:57.701Z,4.97
2022-12-25T06:26:29.155Z,5.40
2022-12-25T06:27:00.529Z,5.70
2022-12-25T06:27:32.034Z,5.47
2022-12-25T06:28:03.602Z,5.53
2022-12-25T06:28:35.540Z,5.22
2022-12-25T06:29:06.896Z,5.65
2022-12-25T06:29:38.250Z,5.70
2022-12-25T06:30:09.866Z,4.88
2022-12-25T06:30:41.221Z,5.85
2022-12-25T06:31:14.283Z,6.18
2022-12-25T06:31:46.128Z,5.97
2022-12-25T06:32:17.840Z,6.60
2022-12-25T06:32:49.280Z,5.78
2022-12-25T06:33:20.763Z,5.82
2022-12-25T06:33:52.330Z,6.28
2022-12-25T06:34:23.737Z,6.17
2022-12-25T06:34:55.161Z,6.50
2022-12-25T06:35:26.588Z,5.97
2022-12-25T06:35:57.973Z,6.22
2022-12-25T06:36:29.397Z,6.65
2022-12-25T06:37:00.851Z,7.40
2022-12-25T06:37:32.374Z,7.50
2022-12-25T06:38:03.761Z,5.65
2022-12-25T06:38:35.123Z,5.82
2022-12-25T06:39:06.522Z,6.10
2022-12-25T06:39:37.868Z,5.35
2022-12-25T06:40:09.348Z,5.95
2022-12-25T06:40:40.743Z,6.18
2022-12-25T06:41:13.405Z,5.57
2022-12-25T06:41:44.794Z,5.60
2022-12-25T06:42:16.131Z,4.78
2022-12-25T06:42:47.493Z,4.97
2022-12-25T06:43:18.857Z,5.88
2022-12-25T06:43:54.227Z,5.60
2022-12-25T06:44:25.679Z,5.47
2022-12-25T06:44:57.044Z,5.88
2022-12-25T06:45:28.412Z,5.65
2022-12-25T06:46:03.721Z,6.03
2022-12-25T06:46:35.160Z,4.85
2022-12-25T06:47:06.539Z,5.90
2022-12-25T06:47:37.957Z,5.78
2022-12-25T06:48:09.318Z,5.20
2022-12-25T06:48:41.118Z,6.05
2022-12-25T06:49:12.727Z,5.80
2022-12-25T06:49:44.122Z,5.85
2022-12-25T06:50:15.543Z,4.78
2022-12-25T06:50:46.877Z,5.72
2022-12-25T06:51:19.100Z,6.13
2022-12-25T06:51:50.477Z,5.50
2022-12-25T06:52:21.796Z,5.53
2022-12-25T06:52:53.152Z,5.60
2022-12-25T06:53:24.486Z,5.18
2022-12-25T06:53:55.983Z,4.82
2022-12-25T06:54:27.385Z,5.85
2022-12-25T06:54:58.782Z,5.20
2022-12-25T06:55:30.118Z,5.53
2022-12-25T06:56:05.512Z,5.57
2022-12-25T06:56:37.104Z,5.20
2022-12-25T06:57:08.517Z,5.65
2022-12-25T06:57:39.883Z,5.60
2022-12-25T06:58:11.286Z,5.60
2022-12-25T06:58:43.622Z,5.30
2022-12-25T06:59:14.992Z,5.28
2022-12-25T06:59:51.256Z,5.10
2022-12-25T07:00:26.019Z,6.35
2022-12-25T07:00:57.492Z,6.15
2022-12-25T07:01:30.692Z,6.47
2022-12-25T07:02:02.234Z,5.50
2022-12-25T07:02:34.738Z,5.68
2022-12-25T07:03:06.333Z,6.95
2022-12-25T07:03:37.726Z,6.03
2022-12-25T07:04:32.472Z,5.75
2022-12-25T07:05:04.218Z,5.83
2022-12-25T07:05:38.110Z,5.40
2022-12-25T07:06:09.529Z,5.20
2022-12-25T07:06:40.898Z,5.63
2022-12-25T07:07:12.241Z,5.78
2022-12-25T07:07:43.622Z,4.93
2022-12-25T07:08:15.107Z,5.85
2022-12-25T07:08:46.485Z,6.72
2022-12-25T07:09:17.949Z,5.95
2022-12-25T07:09:49.323Z,5.95
2022-12-25T07:10:20.760Z,5.82
2022-12-25T07:10:52.248Z,6.32
2022-12-25T07:11:23.775Z,6.15
2022-12-25T07:12:02.042Z,6.10
2022-12-25T07:12:33.418Z,6.28
2022-12-25T07:13:04.748Z,6.88
2022-12-25T07:13:36.173Z,6.57
2022-12-25T07:14:07.633Z,6.03
2022-12-25T07:14:39.020Z,6.30
2022-12-25T07:15:10.511Z,6.15